createdAt,value
2017-08-13T00:00:05.240Z,6.43
2017-08-13T00:02:33.481Z,5.70
2017-08-13T00:05:02.526Z,5.90
2017-08-13T00:07:30.797Z,5.33
2017-08-13T00:09:59.044Z,6.97
2017-08-13T00:12:27.334Z,6.03
2017-08-13T00:14:55.558Z,6.80
2017-08-13T00:17:23.892Z,6.60
2017-08-13T00:20:02.854Z,7.53
2017-08-13T00:22:32.050Z,7.27
2017-08-13T00:25:00.290Z,7.10
2017-08-13T00:27:29.414Z,7.87
2017-08-13T00:29:57.659Z,7.10
2017-08-13T00:32:25.952Z,7.47
2017-08-13T00:34:54.182Z,6.63
2017-08-13T00:37:23.209Z,7.90
2017-08-13T00:39:51.457Z,7.23
2017-08-13T00:42:19.739Z,8.03
2017-08-13T00:44:48.776Z,8.20
2017-08-13T00:47:17.044Z,8.03
2017-08-13T00:49:45.278Z,8.13
2017-08-13T00:52:14.438Z,7.97
2017-08-13T00:54:42.730Z,7.70
2017-08-13T00:57:11.283Z,7.90
2017-08-13T00:59:40.251Z,7.57
2017-08-13T01:02:08.688Z,8.27
2017-08-13T01:04:36.918Z,8.10
2017-08-13T01:07:05.182Z,7.10
2017-08-13T01:09:34.197Z,7.00
2017-08-13T01:12:02.453Z,8.37
2017-08-13T01:14:32.410Z,8.03
2017-08-13T01:17:00.666Z,8.23
2017-08-13T01:19:29.834Z,9.07
2017-08-13T01:21:58.875Z,8.50
2017-08-13T01:24:28.191Z,8.63
2017-08-13T01:26:57.275Z,8.87
2017-08-13T01:29:25.784Z,8.60
2017-08-13T01:31:54.057Z,8.93
2017-08-13T01:34:22.300Z,7.93
2017-08-13T01:36:50.562Z,8.30
2017-08-13T01:39:20.445Z,10.67
2017-08-13T01:41:48.710Z,10.93
2017-08-13T01:44:16.959Z,9.20
2017-08-13T01:46:45.242Z,9.33
2017-08-13T01:49:13.496Z,11.10
2017-08-13T01:51:42.210Z,10.90
2017-08-13T01:54:10.484Z,10.07
2017-08-13T01:56:38.734Z,11.30
2017-08-13T01:59:07.005Z,10.17
2017-08-13T02:01:35.766Z,9.47
2017-08-13T02:04:04.783Z,11.17
2017-08-13T02:06:33.781Z,10.40
2017-08-13T02:09:02.051Z,10.50
2017-08-13T02:11:31.063Z,10.37
2017-08-13T02:13:59.305Z,9.70
2017-08-13T02:16:28.315Z,10.63
2017-08-13T02:18:57.350Z,9.43
2017-08-13T02:21:25.621Z,10.10
2017-08-13T02:23:54.298Z,9.77
2017-08-13T02:26:22.553Z,13.07
2017-08-13T02:28:51.701Z,12.30
2017-08-13T02:31:19.934Z,10.90
2017-08-13T02:33:48.195Z,12.93
2017-08-13T02:36:16.430Z,12.20
2017-08-13T02:38:45.732Z,11.43
2017-08-13T02:41:13.988Z,10.27
2017-08-13T02:43:42.267Z,10.53
2017-08-13T02:46:10.559Z,10.00
2017-08-13T02:48:38.836Z,11.70
2017-08-13T02:51:07.058Z,12.23
2017-08-13T02:53:36.066Z,12.57
2017-08-13T02:56:04.349Z,12.80
2017-08-13T02:58:33.426Z,12.50
2017-08-13T03:01:02.456Z,13.43
2017-08-13T03:03:30.716Z,13.23
2017-08-13T03:05:58.985Z,15.10
2017-08-13T03:08:28.011Z,15.50
2017-08-13T03:10:56.268Z,14.50
2017-08-13T03:13:24.530Z,15.80
2017-08-13T03:15:53.529Z,15.13
2017-08-13T03:18:21.786Z,14.80
2017-08-13T03:20:50.824Z,14.27
2017-08-13T03:23:19.103Z,15.40
2017-08-13T03:25:47.369Z,17.73
2017-08-13T03:28:15.624Z,16.53
2017-08-13T03:30:44.642Z,16.10
2017-08-13T03:33:13.092Z,17.80
2017-08-13T03:35:42.130Z,18.10
2017-08-13T03:38:10.511Z,17.83
2017-08-13T03:40:38.745Z,17.13
2017-08-13T03:43:07.765Z,18.13
2017-08-13T03:45:36.031Z,15.27
2017-08-13T03:48:05.081Z,18.23
2017-08-13T03:50:33.345Z,16.00
2017-08-13T03:53:01.613Z,17.73
2017-08-13T03:55:29.877Z,18.07
2017-08-13T03:57:58.106Z,17.00
2017-08-13T04:00:27.108Z,17.90
2017-08-13T04:02:55.443Z,18.67
2017-08-13T04:05:24.702Z,17.87
2017-08-13T04:07:53.703Z,19.53
2017-08-13T04:10:22.758Z,58.17
2017-08-13T04:12:51.026Z,29.43
2017-08-13T04:15:19.291Z,25.87
2017-08-13T04:17:47.687Z,21.77
2017-08-13T04:20:15.932Z,19.50
2017-08-13T04:22:44.209Z,18.40
2017-08-13T04:25:12.772Z,17.30
2017-08-13T04:27:41.750Z,17.90
2017-08-13T04:30:10.784Z,17.27
2017-08-13T04:32:39.026Z,16.77
2017-08-13T04:35:08.069Z,16.30
2017-08-13T04:37:36.317Z,17.40
2017-08-13T04:40:04.570Z,15.53
2017-08-13T04:42:32.814Z,16.90
2017-08-13T04:45:01.090Z,15.07
2017-08-13T04:47:29.854Z,17.20
2017-08-13T04:49:59.668Z,17.47
2017-08-13T04:52:27.912Z,17.40
2017-08-13T04:54:56.908Z,17.37
2017-08-13T04:57:25.174Z,18.67
2017-08-13T04:59:54.204Z,18.93
2017-08-13T05:02:22.449Z,18.77
2017-08-13T05:04:51.494Z,19.17
2017-08-13T05:07:19.735Z,20.60
2017-08-13T05:09:48.864Z,22.07
2017-08-13T05:12:17.090Z,20.27
2017-08-13T05:14:46.709Z,21.67
2017-08-13T05:17:14.966Z,20.30
2017-08-13T05:19:43.214Z,22.00
2017-08-13T05:22:11.461Z,21.50
2017-08-13T05:24:39.717Z,22.20
2017-08-13T05:27:08.009Z,21.20
2017-08-13T05:29:37.029Z,20.50
2017-08-13T05:32:05.270Z,20.33
2017-08-13T05:34:34.294Z,20.37
2017-08-13T05:37:02.542Z,20.07
2017-08-13T05:39:30.816Z,19.73
2017-08-13T05:41:59.082Z,21.97
2017-08-13T05:44:27.325Z,19.30
2017-08-13T05:46:55.588Z,19.53
2017-08-13T05:49:23.830Z,21.60
2017-08-13T05:51:52.235Z,19.17
2017-08-13T05:54:20.499Z,23.03
2017-08-13T05:56:48.763Z,22.80
2017-08-13T05:59:17.758Z,24.33
2017-08-13T06:01:46.046Z,22.00
2017-08-13T06:04:14.298Z,24.97
2017-08-13T06:06:43.306Z,24.03
2017-08-13T06:09:11.563Z,26.57
2017-08-13T06:11:40.566Z,25.80
2017-08-13T06:14:09.615Z,27.20
2017-08-13T06:16:37.873Z,28.93
2017-08-13T06:19:06.707Z,26.63
2017-08-13T06:21:34.972Z,22.40
2017-08-13T06:24:03.225Z,25.70
2017-08-13T06:26:31.487Z,24.97
2017-08-13T06:28:59.753Z,22.30
2017-08-13T06:31:28.298Z,21.40
2017-08-13T06:33:56.571Z,17.90
2017-08-13T06:36:24.849Z,15.30
2017-08-13T06:38:53.103Z,17.87
2017-08-13T06:41:21.355Z,16.53
2017-08-13T06:43:49.658Z,18.30
2017-08-13T06:46:17.915Z,18.30
2017-08-13T06:48:46.401Z,17.13
2017-08-13T06:51:14.679Z,16.13
2017-08-13T06:53:42.923Z,16.57
2017-08-13T06:56:11.954Z,15.40
2017-08-13T06:58:40.210Z,14.77
2017-08-13T07:01:08.466Z,15.83
2017-08-13T07:03:37.491Z,14.60
2017-08-13T07:06:05.762Z,14.07
2017-08-13T07:08:34.002Z,13.33
2017-08-13T07:11:03.037Z,15.10
2017-08-13T07:13:31.289Z,16.30
2017-08-13T07:16:00.350Z,15.70
2017-08-13T07:18:28.599Z,17.30
2017-08-13T07:20:57.048Z,14.77
2017-08-13T07:23:26.059Z,14.47
2017-08-13T07:25:54.330Z,13.70
2017-08-13T07:28:22.590Z,14.60
2017-08-13T07:30:51.853Z,13.87
2017-08-13T07:33:20.110Z,14.30
2017-08-13T07:35:48.351Z,14.37
2017-08-13T07:38:17.388Z,13.60
2017-08-13T07:40:45.631Z,14.07
2017-08-13T07:43:14.241Z,13.80
2017-08-13T07:45:42.482Z,13.57
2017-08-13T07:48:11.499Z,14.93
2017-08-13T07:50:39.817Z,13.37
2017-08-13T07:53:08.049Z,11.53
2017-08-13T07:55:36.303Z,12.83
2017-08-13T07:58:05.346Z,12.00
2017-08-13T08:00:33.591Z,12.40
2017-08-13T08:03:01.877Z,11.10
2017-08-13T08:05:30.281Z,11.87
2017-08-13T08:07:58.547Z,12.30
2017-08-13T08:10:26.871Z,12.40
2017-08-13T08:12:55.098Z,11.83
2017-08-13T08:15:23.363Z,11.77
2017-08-13T08:17:51.631Z,12.83
2017-08-13T08:20:19.887Z,10.93
2017-08-13T08:22:48.920Z,11.03
2017-08-13T08:25:17.196Z,10.57
2017-08-13T08:27:45.813Z,10.53
2017-08-13T08:30:14.065Z,9.93
2017-08-13T08:32:42.336Z,9.20
2017-08-13T08:35:10.577Z,10.03
2017-08-13T08:37:39.600Z,10.53
2017-08-13T08:40:07.916Z,12.33
2017-08-13T08:42:36.213Z,11.87
2017-08-13T08:45:04.499Z,11.27
2017-08-13T08:47:32.753Z,11.10
2017-08-13T08:50:01.206Z,10.30
2017-08-13T08:52:29.467Z,9.53
2017-08-13T08:54:57.735Z,11.43
2017-08-13T08:57:25.998Z,9.63
2017-08-13T08:59:55.049Z,11.00
2017-08-13T09:02:23.333Z,10.87
2017-08-13T09:04:51.638Z,11.17
2017-08-13T09:07:19.882Z,10.50
2017-08-13T09:09:48.313Z,10.27
2017-08-13T09:12:16.539Z,8.50
2017-08-13T09:14:44.793Z,8.70
2017-08-13T09:17:13.197Z,7.23
2017-08-13T09:19:41.479Z,6.87
2017-08-13T09:22:09.801Z,6.30
2017-08-13T09:24:38.854Z,6.23
2017-08-13T09:27:07.076Z,6.63
2017-08-13T09:29:36.137Z,5.50
2017-08-13T09:32:04.486Z,4.40
2017-08-13T09:34:32.722Z,4.50
2017-08-13T09:37:01.786Z,4.23
2017-08-13T09:39:30.054Z,4.33
2017-08-13T09:41:58.300Z,5.00
2017-08-13T09:44:26.601Z,4.53
2017-08-13T09:46:54.877Z,5.20
2017-08-13T09:49:23.157Z,5.70
2017-08-13T09:51:51.415Z,4.53
2017-08-13T09:54:19.686Z,4.47
2017-08-13T09:56:48.710Z,4.40
2017-08-13T09:59:17.078Z,4.57
2017-08-13T10:01:45.316Z,4.23
2017-08-13T10:04:14.336Z,5.30
2017-08-13T10:06:42.593Z,4.70
2017-08-13T10:09:10.868Z,3.80
2017-08-13T10:11:39.149Z,8.53
2017-08-13T10:14:08.165Z,4.10
2017-08-13T10:16:36.415Z,3.90
2017-08-13T10:19:05.442Z,3.77
2017-08-13T10:21:33.745Z,3.40
2017-08-13T10:24:01.961Z,3.87
2017-08-13T10:26:31.696Z,4.10
2017-08-13T10:29:01.306Z,3.67
2017-08-13T10:31:29.736Z,4.37
2017-08-13T10:33:58.026Z,4.47
2017-08-13T10:36:26.278Z,4.07
2017-08-13T10:38:54.509Z,3.73
2017-08-13T10:41:22.779Z,4.13
2017-08-13T10:43:51.052Z,5.00
2017-08-13T10:46:19.319Z,4.40
2017-08-13T10:48:48.569Z,5.93
2017-08-13T10:51:17.650Z,3.30
2017-08-13T10:53:45.902Z,3.80
2017-08-13T10:56:15.784Z,3.43
2017-08-13T10:58:44.053Z,3.17
2017-08-13T11:01:12.329Z,3.43
2017-08-13T11:03:40.538Z,4.17
2017-08-13T11:06:09.580Z,3.37
2017-08-13T11:08:37.856Z,3.87
2017-08-13T11:11:06.116Z,3.73
2017-08-13T11:13:34.389Z,2.70
2017-08-13T11:16:02.624Z,3.33
2017-08-13T11:18:30.882Z,3.33
2017-08-13T11:20:59.136Z,3.40
2017-08-13T11:23:27.542Z,3.00
2017-08-13T11:25:55.802Z,3.63
2017-08-13T11:28:24.070Z,3.30
2017-08-13T11:30:52.341Z,3.30
2017-08-13T11:33:20.601Z,3.60
2017-08-13T11:35:48.829Z,3.70
2017-08-13T11:38:17.091Z,3.40
2017-08-13T11:40:45.324Z,2.90
2017-08-13T11:43:13.585Z,3.23
2017-08-13T11:45:41.870Z,3.40
2017-08-13T11:48:10.861Z,2.73
2017-08-13T11:50:39.922Z,3.57
2017-08-13T11:53:08.226Z,2.83
2017-08-13T11:55:36.486Z,2.90
2017-08-13T11:58:04.760Z,3.40
2017-08-13T12:00:33.003Z,3.60
2017-08-13T12:03:01.307Z,3.90
2017-08-13T12:05:29.594Z,3.20
2017-08-13T12:07:57.826Z,3.67
2017-08-13T12:10:26.826Z,4.13
2017-08-13T12:12:55.125Z,3.50
2017-08-13T12:15:23.399Z,3.80
2017-08-13T12:17:51.657Z,3.40
2017-08-13T12:20:19.890Z,3.80
2017-08-13T12:22:48.133Z,3.30
2017-08-13T12:25:16.392Z,3.10
2017-08-13T12:27:44.659Z,3.60
2017-08-13T12:30:12.925Z,4.27
2017-08-13T12:32:41.202Z,4.27
2017-08-13T12:35:10.198Z,3.90
2017-08-13T12:37:38.447Z,3.70
2017-08-13T12:40:07.500Z,3.90
2017-08-13T12:42:35.773Z,3.70
2017-08-13T12:45:04.026Z,5.10
2017-08-13T12:47:32.277Z,4.40
2017-08-13T12:50:00.547Z,4.57
2017-08-13T12:52:28.879Z,4.80
2017-08-13T12:54:57.124Z,4.40
2017-08-13T12:57:26.157Z,4.97
2017-08-13T12:59:54.416Z,5.20
2017-08-13T13:02:22.730Z,4.70
2017-08-13T13:04:50.976Z,5.13
2017-08-13T13:07:19.471Z,5.57
2017-08-13T13:09:48.638Z,4.20
2017-08-13T13:12:17.650Z,5.30
2017-08-13T13:14:47.486Z,4.60
2017-08-13T13:17:15.765Z,4.50
2017-08-13T13:19:44.029Z,4.40
2017-08-13T13:22:12.275Z,5.87
2017-08-13T13:24:40.585Z,4.97
2017-08-13T13:27:09.309Z,4.73
2017-08-13T13:29:37.640Z,4.67
2017-08-13T13:32:06.687Z,5.50
2017-08-13T13:34:34.937Z,5.00
2017-08-13T13:37:03.214Z,4.37
2017-08-13T13:39:31.459Z,4.70
2017-08-13T13:42:00.049Z,5.27
2017-08-13T13:44:29.052Z,5.60
2017-08-13T13:46:57.298Z,5.40
2017-08-13T13:49:25.543Z,5.33
2017-08-13T13:51:53.814Z,6.33
2017-08-13T13:54:22.091Z,7.47
2017-08-13T13:56:50.365Z,9.43
2017-08-13T13:59:18.621Z,9.80
2017-08-13T14:01:46.918Z,9.03
2017-08-13T14:04:15.175Z,8.80
2017-08-13T14:06:43.426Z,10.70
2017-08-13T14:09:11.673Z,10.17
2017-08-13T14:11:40.846Z,10.37
2017-08-13T14:14:09.073Z,10.07
2017-08-13T14:16:37.379Z,11.67
2017-08-13T14:19:05.997Z,10.90
2017-08-13T14:21:34.273Z,12.40
2017-08-13T14:24:02.533Z,11.00
2017-08-13T14:26:30.818Z,12.20
2017-08-13T14:28:59.096Z,11.47
2017-08-13T14:31:27.355Z,12.20
2017-08-13T14:33:55.641Z,11.70
2017-08-13T14:36:23.932Z,11.67
2017-08-13T14:38:52.225Z,10.93
2017-08-13T14:41:20.553Z,12.87
2017-08-13T14:43:48.818Z,10.90
2017-08-13T14:46:17.094Z,11.70
2017-08-13T14:48:45.358Z,12.33
2017-08-13T14:51:13.780Z,9.70
2017-08-13T14:53:42.106Z,12.47
2017-08-13T14:56:11.220Z,10.30
2017-08-13T14:58:39.478Z,10.37
2017-08-13T15:01:08.512Z,10.77
2017-08-13T15:03:36.825Z,11.10
2017-08-13T15:06:05.894Z,12.17
2017-08-13T15:08:34.163Z,10.27
2017-08-13T15:11:02.411Z,11.00
2017-08-13T15:13:30.698Z,10.60
2017-08-13T15:15:58.953Z,10.27
2017-08-13T15:18:28.046Z,10.57
2017-08-13T15:20:57.068Z,9.50
2017-08-13T15:23:25.335Z,9.70
2017-08-13T15:25:53.629Z,9.53
2017-08-13T15:28:21.902Z,9.63
2017-08-13T15:30:50.919Z,9.30
2017-08-13T15:33:19.541Z,10.40
2017-08-13T15:35:47.791Z,11.33
2017-08-13T15:38:16.902Z,10.60
2017-08-13T15:40:45.174Z,11.50
2017-08-13T15:43:13.452Z,11.13
2017-08-13T15:45:41.687Z,11.60
2017-08-13T15:48:09.979Z,10.20
2017-08-13T15:50:38.297Z,10.23
2017-08-13T15:53:06.561Z,10.60
2017-08-13T15:55:34.839Z,8.70
2017-08-13T15:58:03.115Z,8.00
2017-08-13T16:00:31.389Z,7.83
2017-08-13T16:02:59.915Z,7.83
2017-08-13T16:05:28.257Z,7.90
2017-08-13T16:07:56.570Z,9.10
2017-08-13T16:10:24.836Z,7.63
2017-08-13T16:12:53.096Z,8.80
2017-08-13T16:15:21.371Z,8.57
2017-08-13T16:17:49.647Z,9.87
2017-08-13T16:20:18.786Z,9.40
2017-08-13T16:22:47.779Z,7.47
2017-08-13T16:25:16.868Z,8.30
2017-08-13T16:27:45.237Z,8.80
2017-08-13T16:30:13.491Z,9.13
2017-08-13T16:32:41.769Z,9.60
2017-08-13T16:35:10.392Z,8.17
2017-08-13T16:37:39.415Z,8.40
2017-08-13T16:40:07.688Z,9.40
2017-08-13T16:42:35.946Z,7.67
2017-08-13T16:45:04.231Z,8.10
2017-08-13T16:47:32.490Z,6.40
2017-08-13T16:50:01.536Z,6.23
2017-08-13T16:52:29.816Z,6.57
2017-08-13T16:54:58.178Z,7.30
2017-08-13T16:57:26.422Z,6.33
2017-08-13T16:59:55.460Z,6.57
2017-08-13T17:02:23.726Z,5.40
2017-08-13T17:04:53.959Z,5.10
2017-08-13T17:07:22.319Z,5.47
2017-08-13T17:09:50.592Z,5.57
2017-08-13T17:12:18.893Z,5.90
2017-08-13T17:14:47.201Z,5.60
2017-08-13T17:17:16.551Z,5.10
2017-08-13T17:19:44.838Z,5.30
2017-08-13T17:22:13.072Z,5.13
2017-08-13T17:24:42.117Z,4.80
2017-08-13T17:27:10.450Z,5.87
2017-08-13T17:29:38.681Z,4.30
2017-08-13T17:32:06.933Z,5.00
2017-08-13T17:34:35.851Z,5.30
2017-08-13T17:37:04.149Z,5.83
2017-08-13T17:39:33.176Z,4.47
2017-08-13T17:42:02.229Z,4.50
2017-08-13T17:44:30.523Z,5.40
2017-08-13T17:47:00.433Z,5.00
2017-08-13T17:49:28.739Z,4.80
2017-08-13T17:51:57.782Z,4.90
2017-08-13T17:54:26.058Z,5.00
2017-08-13T17:56:54.392Z,5.20
2017-08-13T17:59:23.426Z,4.87
2017-08-13T18:01:51.702Z,6.50
2017-08-13T18:04:19.996Z,5.67
2017-08-13T18:06:48.297Z,6.30
2017-08-13T18:09:16.567Z,5.27
2017-08-13T18:11:45.747Z,5.07
2017-08-13T18:14:14.006Z,5.30
2017-08-13T18:16:42.243Z,5.73
2017-08-13T18:19:11.277Z,5.53
2017-08-13T18:21:40.359Z,5.90
2017-08-13T18:24:09.375Z,5.23
2017-08-13T18:26:37.643Z,5.53
2017-08-13T18:29:05.882Z,5.80
2017-08-13T18:31:34.925Z,5.50
2017-08-13T18:34:03.195Z,5.77
2017-08-13T18:36:32.759Z,5.37
2017-08-13T18:39:01.012Z,5.20
2017-08-13T18:41:30.065Z,6.00
2017-08-13T18:43:58.395Z,4.50
2017-08-13T18:46:26.957Z,5.63
2017-08-13T18:48:55.273Z,5.77
2017-08-13T18:51:24.403Z,5.60
2017-08-13T18:53:52.730Z,5.20
2017-08-13T18:56:21.082Z,5.37
2017-08-13T18:58:49.622Z,5.63
2017-08-13T19:01:19.063Z,5.20
2017-08-13T19:03:47.641Z,4.60
2017-08-13T19:06:17.584Z,5.67
2017-08-13T19:08:47.169Z,5.30
2017-08-13T19:11:16.246Z,5.70
2017-08-13T19:13:45.263Z,6.20
2017-08-13T19:16:16.258Z,5.70
2017-08-13T19:18:46.830Z,6.10
2017-08-13T19:21:15.735Z,6.77
2017-08-13T19:23:45.025Z,6.67
2017-08-13T19:26:13.811Z,6.27
2017-08-13T19:28:43.028Z,6.70
2017-08-13T19:31:11.799Z,6.57
2017-08-13T19:33:40.613Z,7.23
2017-08-13T19:36:10.462Z,6.60
2017-08-13T19:38:39.200Z,6.60
2017-08-13T19:41:07.983Z,5.37
2017-08-13T19:43:36.774Z,6.83
2017-08-13T19:46:05.565Z,6.70
2017-08-13T19:48:34.456Z,6.47
2017-08-13T19:51:03.269Z,7.00
2017-08-13T19:53:32.133Z,6.63
2017-08-13T19:56:01.024Z,7.00
2017-08-13T19:58:29.816Z,7.10
2017-08-13T20:00:58.611Z,7.47
2017-08-13T20:03:27.402Z,6.97
2017-08-13T20:05:56.698Z,7.30
2017-08-13T20:08:25.489Z,7.10
2017-08-13T20:10:54.990Z,6.97
2017-08-13T20:13:23.899Z,8.27
2017-08-13T20:15:53.084Z,7.57
2017-08-13T20:18:21.978Z,6.80
2017-08-13T20:20:50.357Z,8.00
2017-08-13T20:23:18.666Z,7.30
2017-08-13T20:25:46.986Z,8.27
2017-08-13T20:28:15.339Z,7.10
2017-08-13T20:30:43.661Z,8.00
2017-08-13T20:33:11.956Z,7.70
2017-08-13T20:35:40.239Z,6.53
2017-08-13T20:38:08.520Z,7.67
2017-08-13T20:40:36.847Z,7.20
2017-08-13T20:43:05.409Z,7.60
2017-08-13T20:45:34.569Z,8.10
2017-08-13T20:48:03.662Z,8.17
2017-08-13T20:50:32.092Z,8.77
2017-08-13T20:53:00.640Z,8.53
2017-08-13T20:55:28.954Z,9.10
2017-08-13T20:57:57.994Z,7.90
2017-08-13T21:00:26.282Z,8.33
2017-08-13T21:02:54.597Z,7.30
2017-08-13T21:05:23.691Z,7.50
2017-08-13T21:07:51.941Z,9.30
2017-08-13T21:10:20.849Z,8.43
2017-08-13T21:12:49.120Z,9.43
2017-08-13T21:15:18.359Z,8.90
2017-08-13T21:17:46.601Z,8.53
2017-08-13T21:20:15.015Z,10.80
2017-08-13T21:22:44.044Z,7.90
2017-08-13T21:25:12.383Z,8.47
2017-08-13T21:27:41.536Z,9.60
2017-08-13T21:30:09.818Z,9.27
2017-08-13T21:32:38.104Z,8.90
2017-08-13T21:35:07.354Z,8.93
2017-08-13T21:37:35.663Z,9.40
2017-08-13T21:40:04.026Z,8.97
2017-08-13T21:42:33.016Z,8.90
2017-08-13T21:45:01.267Z,9.07
2017-08-13T21:47:30.316Z,8.70
2017-08-13T21:49:58.574Z,9.67
2017-08-13T21:52:26.814Z,9.70
2017-08-13T21:54:55.847Z,8.47
2017-08-13T21:57:24.135Z,7.90
2017-08-13T21:59:52.370Z,7.80
2017-08-13T22:02:21.425Z,8.67
2017-08-13T22:04:49.733Z,8.63
2017-08-13T22:07:17.982Z,9.40
2017-08-13T22:09:46.237Z,10.70
2017-08-13T22:12:14.576Z,9.00
2017-08-13T22:14:43.578Z,9.00
2017-08-13T22:17:11.852Z,9.53
2017-08-13T22:19:41.136Z,9.07
2017-08-13T22:22:10.585Z,9.27
2017-08-13T22:24:39.077Z,10.33
2017-08-13T22:27:07.339Z,9.17
2017-08-13T22:29:35.729Z,8.23
2017-08-13T22:32:03.975Z,9.03
2017-08-13T22:34:33.026Z,7.50
2017-08-13T22:37:01.374Z,7.80
2017-08-13T22:39:29.617Z,8.57
2017-08-13T22:41:58.632Z,9.77
2017-08-13T22:44:26.925Z,9.33
2017-08-13T22:46:55.184Z,9.03
2017-08-13T22:49:24.217Z,8.30
2017-08-13T22:51:52.476Z,9.97
2017-08-13T22:54:20.952Z,9.73
2017-08-13T22:56:49.229Z,10.90
2017-08-13T22:59:17.485Z,8.73
2017-08-13T23:01:45.746Z,9.17
2017-08-13T23:04:14.051Z,9.67
2017-08-13T23:06:43.082Z,9.57
2017-08-13T23:09:11.334Z,10.50
2017-08-13T23:11:39.598Z,10.10
2017-08-13T23:14:07.910Z,9.70
2017-08-13T23:16:37.007Z,9.70
2017-08-13T23:19:05.251Z,10.17
2017-08-13T23:21:33.544Z,9.40
2017-08-13T23:24:01.927Z,8.83
2017-08-13T23:26:30.152Z,9.43
2017-08-13T23:28:59.171Z,9.07
2017-08-13T23:31:27.417Z,10.90
2017-08-13T23:33:56.470Z,10.27
2017-08-13T23:36:24.777Z,9.83
2017-08-13T23:38:53.005Z,10.67
2017-08-13T23:41:21.279Z,10.90
2017-08-13T23:43:49.646Z,11.53
2017-08-13T23:46:17.900Z,11.37
2017-08-13T23:48:46.163Z,10.77
2017-08-13T23:51:14.445Z,9.97
2017-08-13T23:53:42.745Z,10.10
2017-08-13T23:56:11.773Z,10.60
2017-08-13T23:58:40.376Z,9.50
